createdAt,value
2018-10-12T00:02:07.878Z,10.70
2018-10-12T00:04:36.075Z,8.65
2018-10-12T00:07:04.236Z,10.23
2018-10-12T00:09:32.409Z,9.45
2018-10-12T00:12:01.248Z,8.43
2018-10-12T00:14:29.429Z,9.48
2018-10-12T00:16:57.684Z,8.88
2018-10-12T00:19:26.197Z,6.92
2018-10-12T00:21:54.643Z,9.38
2018-10-12T00:24:22.825Z,12.10
2018-10-12T00:26:51.022Z,9.35
2018-10-12T00:29:19.212Z,10.30
2018-10-12T00:31:47.388Z,10.68
2018-10-12T00:34:15.560Z,9.23
2018-10-12T00:36:43.765Z,9.78
2018-10-12T00:39:11.992Z,7.87
2018-10-12T00:41:40.136Z,11.22
2018-10-12T00:44:08.288Z,9.63
2018-10-12T00:46:36.432Z,8.98
2018-10-12T00:49:04.608Z,8.50
2018-10-12T00:51:32.750Z,9.23
2018-10-12T00:54:00.904Z,12.05
2018-10-12T00:56:29.093Z,8.90
2018-10-12T00:58:57.234Z,9.30
2018-10-12T01:01:25.396Z,9.10
2018-10-12T01:03:53.554Z,8.95
2018-10-12T01:06:21.706Z,9.15
2018-10-12T01:08:49.849Z,9.83
2018-10-12T01:11:18.025Z,9.63
2018-10-12T01:13:46.183Z,9.87
2018-10-12T01:16:14.381Z,11.00
2018-10-12T01:18:43.882Z,9.90
2018-10-12T01:21:12.039Z,9.88
2018-10-12T01:23:40.184Z,8.40
2018-10-12T01:26:08.471Z,8.90
2018-10-12T01:28:36.620Z,8.50
2018-10-12T01:31:04.775Z,11.80
2018-10-12T01:33:32.941Z,9.58
2018-10-12T01:36:01.091Z,9.00
2018-10-12T01:38:29.237Z,8.65
2018-10-12T01:40:57.426Z,9.13
2018-10-12T01:43:25.588Z,10.30
2018-10-12T01:45:53.756Z,10.18
2018-10-12T01:48:21.928Z,11.22
2018-10-12T01:50:50.090Z,11.60
2018-10-12T01:53:18.241Z,10.33
2018-10-12T01:55:46.411Z,9.18
2018-10-12T01:58:14.553Z,8.33
2018-10-12T02:00:42.704Z,10.50
2018-10-12T02:03:10.923Z,8.85
2018-10-12T02:05:39.071Z,9.33
2018-10-12T02:08:07.264Z,9.25
2018-10-12T02:10:35.415Z,9.93
2018-10-12T02:13:03.577Z,9.45
2018-10-12T02:15:31.744Z,10.38
2018-10-12T02:17:59.915Z,9.88
2018-10-12T02:20:28.108Z,8.90
2018-10-12T02:22:56.281Z,9.45
2018-10-12T02:25:24.437Z,9.53
2018-10-12T02:27:52.599Z,10.72
2018-10-12T02:30:20.777Z,10.63
2018-10-12T02:32:48.932Z,10.15
2018-10-12T02:35:17.088Z,9.98
2018-10-12T02:37:45.341Z,9.30
2018-10-12T02:40:13.521Z,10.50
2018-10-12T02:42:41.672Z,10.82
2018-10-12T02:45:09.883Z,10.08
2018-10-12T02:47:38.022Z,9.48
2018-10-12T02:50:07.364Z,10.63
2018-10-12T02:52:36.104Z,14.13
2018-10-12T02:55:04.356Z,11.20
2018-10-12T02:57:32.510Z,12.55
2018-10-12T03:00:00.668Z,11.43
2018-10-12T03:02:28.818Z,10.80
2018-10-12T03:04:56.989Z,9.25
2018-10-12T03:07:25.128Z,8.85
2018-10-12T03:09:53.294Z,10.30
2018-10-12T03:12:21.913Z,9.00
2018-10-12T03:14:50.067Z,8.95
2018-10-12T03:17:18.228Z,10.13
2018-10-12T03:19:46.386Z,10.60
2018-10-12T03:22:14.569Z,9.75
2018-10-12T03:24:42.786Z,15.05
2018-10-12T03:27:10.952Z,9.50
2018-10-12T03:29:39.104Z,10.72
2018-10-12T03:32:07.241Z,9.83
2018-10-12T03:34:35.426Z,10.98
2018-10-12T03:37:03.621Z,12.78
2018-10-12T03:39:31.744Z,11.03
2018-10-12T03:41:59.927Z,11.90
2018-10-12T03:44:28.185Z,10.80
2018-10-12T03:46:56.335Z,10.13
2018-10-12T03:49:24.502Z,9.38
2018-10-12T03:51:52.694Z,8.65
2018-10-12T03:54:20.793Z,9.13
2018-10-12T03:56:48.968Z,9.23
2018-10-12T03:59:17.127Z,9.48
2018-10-12T04:01:45.290Z,11.73
2018-10-12T04:04:14.368Z,10.65
2018-10-12T04:06:42.517Z,11.03
2018-10-12T04:09:10.668Z,9.88
2018-10-12T04:11:38.828Z,11.93
2018-10-12T04:14:06.982Z,10.15
2018-10-12T04:16:35.228Z,8.55
2018-10-12T04:19:03.384Z,10.15
2018-10-12T04:21:31.684Z,8.38
2018-10-12T04:23:59.838Z,10.13
2018-10-12T04:26:27.990Z,11.90
2018-10-12T04:28:56.134Z,10.18
2018-10-12T04:31:24.296Z,9.48
2018-10-12T04:33:52.438Z,10.60
2018-10-12T04:36:20.636Z,10.50
2018-10-12T04:39:00.013Z,9.40
2018-10-12T04:41:30.705Z,8.43
2018-10-12T04:44:00.300Z,9.73
2018-10-12T04:46:34.241Z,9.60
2018-10-12T04:49:03.371Z,10.38
2018-10-12T04:51:37.628Z,10.82
2018-10-12T04:54:05.840Z,9.63
2018-10-12T04:56:34.002Z,11.57
2018-10-12T04:59:02.688Z,10.40
2018-10-12T05:01:30.848Z,10.45
2018-10-12T05:03:59.005Z,12.47
2018-10-12T05:06:27.211Z,9.33
2018-10-12T05:08:55.398Z,9.95
2018-10-12T05:11:23.629Z,10.45
2018-10-12T05:13:51.897Z,9.93
2018-10-12T05:16:20.049Z,12.43
2018-10-12T05:18:48.271Z,9.50
2018-10-12T05:21:16.416Z,7.80
2018-10-12T05:23:44.592Z,6.45
2018-10-12T05:26:13.160Z,10.85
2018-10-12T05:28:41.328Z,9.73
2018-10-12T05:31:09.610Z,8.73
2018-10-12T05:33:37.770Z,8.90
2018-10-12T05:36:06.256Z,9.33
2018-10-12T05:38:34.541Z,11.28
2018-10-12T05:41:02.769Z,10.88
2018-10-12T05:43:31.105Z,9.58
2018-10-12T05:45:59.154Z,11.75
2018-10-12T05:48:38.732Z,9.55
2018-10-12T05:51:07.533Z,8.83
2018-10-12T05:53:36.008Z,8.63
2018-10-12T05:56:04.486Z,10.03
2018-10-12T05:58:32.765Z,10.00
2018-10-12T06:01:00.993Z,9.10
2018-10-12T06:03:29.139Z,10.53
2018-10-12T06:05:57.286Z,12.30
2018-10-12T06:08:25.564Z,8.15
2018-10-12T06:10:53.720Z,8.70
2018-10-12T06:13:21.867Z,9.50
2018-10-12T06:15:50.064Z,9.08
2018-10-12T06:18:18.152Z,9.25
2018-10-12T06:20:46.762Z,9.93
2018-10-12T06:23:15.070Z,10.50
2018-10-12T06:25:43.256Z,9.13
2018-10-12T06:28:11.925Z,12.13
2018-10-12T06:30:40.086Z,15.48
2018-10-12T06:33:08.251Z,11.18
2018-10-12T06:35:37.157Z,10.48
2018-10-12T06:38:05.328Z,9.00
2018-10-12T06:40:33.942Z,10.78
2018-10-12T06:43:03.014Z,16.97
2018-10-12T06:45:32.330Z,10.18
2018-10-12T06:48:00.484Z,9.68
2018-10-12T06:50:29.185Z,9.88
2018-10-12T06:52:57.356Z,12.00
2018-10-12T06:55:25.509Z,9.13
2018-10-12T06:57:53.716Z,10.10
2018-10-12T07:00:22.114Z,10.40
2018-10-12T07:02:50.277Z,11.78
2018-10-12T07:05:20.066Z,12.33
2018-10-12T07:07:48.249Z,11.90
2018-10-12T07:10:16.401Z,12.03
2018-10-12T07:12:44.600Z,13.85
2018-10-12T07:15:12.778Z,11.78
2018-10-12T07:17:40.940Z,11.88
2018-10-12T07:20:09.101Z,10.63
2018-10-12T07:22:37.253Z,12.35
2018-10-12T07:25:06.577Z,18.42
2018-10-12T07:27:34.736Z,14.25
2018-10-12T07:30:02.923Z,16.15
2018-10-12T07:32:31.166Z,14.15
2018-10-12T07:34:59.352Z,14.68
2018-10-12T07:37:27.545Z,15.10
2018-10-12T07:39:55.701Z,15.18
2018-10-12T07:42:23.918Z,18.40
2018-10-12T07:44:52.041Z,20.08
2018-10-12T07:47:20.595Z,15.43
2018-10-12T07:49:48.729Z,18.55
2018-10-12T07:52:16.900Z,14.13
2018-10-12T07:54:45.133Z,18.20
2018-10-12T07:57:14.688Z,36.50
2018-10-12T07:59:43.680Z,19.02
2018-10-12T08:02:12.961Z,14.87
2018-10-12T08:04:41.980Z,15.90
2018-10-12T08:07:10.861Z,13.00
2018-10-12T08:09:39.725Z,11.08
2018-10-12T08:12:07.924Z,12.37
2018-10-12T08:14:36.095Z,10.27
2018-10-12T08:17:04.774Z,11.90
2018-10-12T08:19:32.924Z,12.80
2018-10-12T08:22:01.108Z,11.75
2018-10-12T08:24:29.357Z,16.05
2018-10-12T08:26:57.590Z,10.93
2018-10-12T08:29:26.980Z,11.28
2018-10-12T08:31:55.174Z,11.05
2018-10-12T08:34:23.409Z,10.95
2018-10-12T08:36:51.756Z,14.98
2018-10-12T08:39:19.933Z,13.03
2018-10-12T08:41:48.224Z,12.03
2018-10-12T08:44:17.142Z,12.50
2018-10-12T08:46:45.296Z,11.25
2018-10-12T08:49:13.457Z,11.35
2018-10-12T08:51:41.715Z,10.88
2018-10-12T08:54:10.044Z,11.35
2018-10-12T08:56:38.757Z,10.50
2018-10-12T08:59:07.044Z,9.88
2018-10-12T09:01:35.197Z,9.68
2018-10-12T09:04:03.458Z,9.68
2018-10-12T09:06:31.721Z,10.10
2018-10-12T09:09:00.720Z,9.63
2018-10-12T09:11:29.702Z,10.08
2018-10-12T09:13:57.872Z,9.58
2018-10-12T09:16:26.092Z,11.08
2018-10-12T09:18:54.342Z,10.80
2018-10-12T09:21:22.518Z,10.13
2018-10-12T09:23:50.695Z,9.30
2018-10-12T09:26:18.872Z,9.18
2018-10-12T09:28:47.040Z,13.90
2018-10-12T09:31:15.213Z,9.15
2018-10-12T09:33:43.853Z,11.45
2018-10-12T09:36:12.016Z,8.38
2018-10-12T09:38:40.182Z,7.25
2018-10-12T09:41:08.380Z,7.75
2018-10-12T09:43:36.601Z,8.90
2018-10-12T09:46:04.786Z,8.53
2018-10-12T09:48:33.005Z,10.15
2018-10-12T09:51:01.177Z,9.03
2018-10-12T09:53:29.340Z,10.72
2018-10-12T09:55:57.610Z,7.42
2018-10-12T09:58:25.744Z,8.33
2018-10-12T10:00:59.725Z,10.72
2018-10-12T10:03:33.242Z,8.35
2018-10-12T10:06:01.458Z,7.20
2018-10-12T10:08:29.752Z,10.38
2018-10-12T10:10:57.778Z,9.63
2018-10-12T10:13:25.967Z,7.40
2018-10-12T10:15:54.137Z,8.18
2018-10-12T10:18:22.670Z,9.70
2018-10-12T10:20:50.955Z,6.03
2018-10-12T10:23:19.112Z,8.23
2018-10-12T10:25:47.279Z,5.67
2018-10-12T10:28:15.463Z,12.28
2018-10-12T10:30:43.634Z,6.47
2018-10-12T10:33:11.822Z,5.62
2018-10-12T10:35:39.986Z,6.30
2018-10-12T10:38:08.230Z,4.70
2018-10-12T10:40:37.356Z,6.05
2018-10-12T10:43:05.670Z,9.33
2018-10-12T10:45:33.839Z,8.90
2018-10-12T10:48:02.035Z,4.00
2018-10-12T10:50:30.194Z,5.28
2018-10-12T10:52:58.386Z,5.80
2018-10-12T10:55:27.114Z,7.15
2018-10-12T10:57:55.303Z,5.90
2018-10-12T11:00:23.477Z,9.03
2018-10-12T11:02:52.147Z,7.37
2018-10-12T11:05:20.299Z,5.67
2018-10-12T11:07:48.455Z,6.35
2018-10-12T11:10:16.672Z,6.70
2018-10-12T11:12:44.921Z,4.45
2018-10-12T11:15:12.992Z,8.23
2018-10-12T11:17:41.222Z,6.05
2018-10-12T11:20:09.387Z,6.87
2018-10-12T11:22:37.539Z,4.70
2018-10-12T11:25:05.710Z,5.78
2018-10-12T11:27:33.863Z,4.83
2018-10-12T11:30:02.564Z,4.03
2018-10-12T11:32:30.718Z,6.72
2018-10-12T11:34:58.899Z,7.22
2018-10-12T11:37:27.126Z,6.10
2018-10-12T11:39:55.277Z,6.87
2018-10-12T11:42:27.934Z,3.83
2018-10-12T11:44:56.174Z,4.05
2018-10-12T11:47:24.300Z,5.75
2018-10-12T11:49:52.552Z,5.42
2018-10-12T11:52:20.725Z,7.08
2018-10-12T11:54:48.911Z,3.50
2018-10-12T11:57:17.105Z,5.33
2018-10-12T11:59:45.261Z,4.87
2018-10-12T12:02:13.445Z,5.65
2018-10-12T12:04:42.829Z,5.23
2018-10-12T12:07:11.009Z,5.45
2018-10-12T12:09:39.181Z,8.50
2018-10-12T12:12:07.524Z,7.08
2018-10-12T12:14:35.688Z,5.58
2018-10-12T12:17:04.731Z,5.50
2018-10-12T12:19:32.893Z,4.58
2018-10-12T12:22:01.054Z,10.00
2018-10-12T12:24:29.262Z,6.53
2018-10-12T12:26:57.428Z,5.58
2018-10-12T12:29:25.589Z,5.70
2018-10-12T12:31:53.766Z,4.42
2018-10-12T12:34:21.912Z,5.72
2018-10-12T12:36:50.088Z,6.95
2018-10-12T12:39:18.636Z,6.80
2018-10-12T12:41:46.883Z,3.27
2018-10-12T12:44:14.982Z,5.87
2018-10-12T12:46:44.130Z,7.50
2018-10-12T12:49:12.739Z,6.33
2018-10-12T12:51:40.464Z,11.35
2018-10-12T12:54:08.749Z,3.23
2018-10-12T12:56:36.900Z,3.95
2018-10-12T12:59:05.042Z,6.67
2018-10-12T13:01:33.208Z,3.98
2018-10-12T13:04:01.376Z,7.83
2018-10-12T13:06:29.843Z,3.45
2018-10-12T13:08:58.724Z,3.40
2018-10-12T13:11:26.857Z,4.33
2018-10-12T13:13:55.069Z,6.20
2018-10-12T13:16:23.215Z,4.80
2018-10-12T13:18:51.417Z,6.25
2018-10-12T13:21:19.632Z,10.75
2018-10-12T13:23:47.787Z,3.90
2018-10-12T13:26:16.171Z,7.20
2018-10-12T13:28:44.515Z,5.37
2018-10-12T13:31:12.680Z,5.00
2018-10-12T13:33:40.843Z,5.28
2018-10-12T13:36:09.860Z,5.92
2018-10-12T13:38:38.051Z,4.42
2018-10-12T13:41:09.928Z,3.35
2018-10-12T13:43:38.079Z,3.95
2018-10-12T13:46:06.233Z,9.13
2018-10-12T13:48:34.415Z,3.62
2018-10-12T13:51:02.561Z,3.83
2018-10-12T13:53:30.703Z,6.20
2018-10-12T13:55:59.140Z,5.70
2018-10-12T13:58:27.316Z,4.60
2018-10-12T14:00:55.532Z,3.77
2018-10-12T14:03:23.676Z,5.90
2018-10-12T14:05:51.866Z,4.78
2018-10-12T14:08:19.994Z,5.50
2018-10-12T14:10:48.155Z,4.05
2018-10-12T14:13:16.352Z,8.57
2018-10-12T14:15:44.511Z,13.22
2018-10-12T14:18:12.823Z,6.95
2018-10-12T14:20:41.102Z,4.40
2018-10-12T14:23:09.228Z,8.85
2018-10-12T14:25:37.393Z,5.00
2018-10-12T14:28:05.561Z,4.85
2018-10-12T14:30:33.715Z,3.02
2018-10-12T14:33:01.879Z,3.58
2018-10-12T14:35:30.082Z,5.87
2018-10-12T14:37:58.340Z,6.08
2018-10-12T14:40:26.385Z,5.78
2018-10-12T14:42:54.566Z,7.17
2018-10-12T14:45:22.788Z,4.55
2018-10-12T14:47:50.864Z,6.00
2018-10-12T14:50:19.058Z,4.60
2018-10-12T14:52:47.251Z,4.75
2018-10-12T14:55:15.385Z,4.30
2018-10-12T14:57:43.541Z,4.50
2018-10-12T15:00:11.688Z,6.62
2018-10-12T15:02:39.946Z,3.98
2018-10-12T15:05:08.100Z,5.40
2018-10-12T15:07:36.263Z,3.65
2018-10-12T15:10:05.638Z,4.45
2018-10-12T15:12:34.906Z,5.45
2018-10-12T15:15:13.592Z,10.98
2018-10-12T15:17:41.761Z,3.80
2018-10-12T15:20:09.951Z,7.10
2018-10-12T15:22:38.113Z,6.20
2018-10-12T15:25:06.283Z,6.22
2018-10-12T15:27:34.564Z,5.50
2018-10-12T15:30:02.721Z,4.22
2018-10-12T15:32:30.883Z,4.35
2018-10-12T15:34:59.521Z,5.30
2018-10-12T15:37:27.722Z,5.95
2018-10-12T15:39:55.875Z,6.00
2018-10-12T15:42:24.129Z,4.05
2018-10-12T15:44:52.395Z,6.83
2018-10-12T15:47:21.068Z,6.50
2018-10-12T15:49:49.229Z,4.45
2018-10-12T15:52:17.391Z,9.13
2018-10-12T15:54:45.529Z,4.60
2018-10-12T15:57:19.649Z,5.67
2018-10-12T15:59:49.113Z,5.42
2018-10-12T16:02:17.989Z,3.40
2018-10-12T16:04:46.475Z,7.00
2018-10-12T16:07:15.576Z,4.12
2018-10-12T16:09:44.564Z,4.15
2018-10-12T16:12:12.789Z,4.65
2018-10-12T16:14:41.126Z,3.90
2018-10-12T16:17:09.288Z,7.42
2018-10-12T16:19:37.501Z,4.10
2018-10-12T16:22:05.883Z,5.55
2018-10-12T16:24:34.034Z,5.17
2018-10-12T16:27:02.187Z,5.92
2018-10-12T16:29:30.352Z,3.05
2018-10-12T16:31:58.537Z,4.35
2018-10-12T16:34:26.687Z,5.65
2018-10-12T16:36:54.848Z,8.05
2018-10-12T16:39:23.007Z,5.47
2018-10-12T16:41:51.231Z,6.85
2018-10-12T16:44:19.393Z,4.50
2018-10-12T16:46:47.582Z,6.97
2018-10-12T16:49:15.724Z,6.45
2018-10-12T16:51:43.868Z,6.35
2018-10-12T16:54:12.076Z,7.92
2018-10-12T16:56:40.224Z,6.60
2018-10-12T16:59:08.377Z,4.55
2018-10-12T17:01:36.538Z,4.72
2018-10-12T17:04:04.697Z,4.70
2018-10-12T17:06:32.854Z,5.33
2018-10-12T17:09:01.015Z,8.68
2018-10-12T17:11:29.173Z,5.70
2018-10-12T17:13:57.773Z,3.95
2018-10-12T17:16:25.931Z,10.20
2018-10-12T17:18:54.079Z,6.08
2018-10-12T17:21:22.242Z,9.35
2018-10-12T17:23:50.399Z,6.62
2018-10-12T17:26:19.663Z,5.53
2018-10-12T17:28:47.901Z,4.22
2018-10-12T17:31:16.041Z,6.22
2018-10-12T17:33:44.205Z,4.08
2018-10-12T17:36:12.354Z,6.45
2018-10-12T17:38:40.539Z,5.45
2018-10-12T17:41:17.872Z,6.85
2018-10-12T17:43:46.080Z,4.97
2018-10-12T17:46:14.578Z,5.22
2018-10-12T17:48:42.738Z,4.72
2018-10-12T17:51:11.447Z,7.90
2018-10-12T17:53:39.620Z,5.80
2018-10-12T17:56:08.397Z,5.92
2018-10-12T17:58:36.559Z,5.25
2018-10-12T18:01:05.469Z,7.42
2018-10-12T18:03:33.633Z,6.15
2018-10-12T18:06:02.942Z,5.40
2018-10-12T18:08:34.283Z,8.85
2018-10-12T18:11:02.468Z,4.00
2018-10-12T18:13:30.617Z,6.12
2018-10-12T18:15:59.121Z,2.87
2018-10-12T18:18:27.274Z,13.90
2018-10-12T18:20:56.298Z,10.25
2018-10-12T18:23:24.459Z,7.70
2018-10-12T18:25:52.674Z,5.17
2018-10-12T18:28:20.775Z,10.28
2018-10-12T18:30:48.929Z,8.15
2018-10-12T18:33:17.173Z,10.67
2018-10-12T18:35:45.410Z,7.15
2018-10-12T18:38:13.568Z,5.35
2018-10-12T18:40:41.756Z,6.47
2018-10-12T18:43:09.985Z,4.70
2018-10-12T18:45:38.149Z,5.10
2018-10-12T18:48:06.407Z,10.23
2018-10-12T18:50:34.556Z,6.40
2018-10-12T18:53:02.724Z,6.72
2018-10-12T18:55:30.880Z,5.80
2018-10-12T18:57:59.032Z,9.10
2018-10-12T19:00:27.208Z,6.65
2018-10-12T19:02:55.364Z,4.30
2018-10-12T19:05:23.526Z,5.62
2018-10-12T19:07:51.701Z,6.97
2018-10-12T19:10:19.849Z,6.83
2018-10-12T19:12:47.997Z,6.25
2018-10-12T19:15:16.175Z,6.05
2018-10-12T19:17:46.034Z,4.92
2018-10-12T19:20:14.320Z,5.95
2018-10-12T19:22:42.511Z,6.40
2018-10-12T19:25:10.683Z,5.22
2018-10-12T19:27:38.848Z,9.68
2018-10-12T19:30:07.025Z,7.05
2018-10-12T19:32:35.252Z,7.87
2018-10-12T19:35:03.432Z,7.95
2018-10-12T19:37:31.619Z,10.50
2018-10-12T19:39:59.777Z,3.77
2018-10-12T19:42:27.934Z,4.90
2018-10-12T19:44:56.145Z,4.12
2018-10-12T19:47:24.416Z,6.67
2018-10-12T19:49:52.568Z,7.53
2018-10-12T19:52:20.736Z,4.87
2018-10-12T19:54:48.919Z,8.80
2018-10-12T19:57:17.080Z,6.90
2018-10-12T19:59:45.277Z,5.58
2018-10-12T20:02:13.427Z,6.40
2018-10-12T20:04:41.588Z,6.22
2018-10-12T20:07:09.774Z,7.47
2018-10-12T20:09:37.945Z,8.10
2018-10-12T20:12:06.128Z,6.05
2018-10-12T20:14:34.302Z,5.12
2018-10-12T20:17:02.506Z,6.83
2018-10-12T20:19:31.243Z,7.30
2018-10-12T20:21:59.455Z,9.60
2018-10-12T20:24:27.599Z,9.58
2018-10-12T20:26:55.759Z,6.62
2018-10-12T20:29:23.935Z,6.10
2018-10-12T20:31:52.124Z,12.73
2018-10-12T20:34:20.294Z,11.88
2018-10-12T20:36:48.464Z,8.95
2018-10-12T20:39:16.694Z,11.80
2018-10-12T20:41:44.815Z,9.30
2018-10-12T20:44:13.011Z,9.13
2018-10-12T20:46:41.170Z,8.85
2018-10-12T20:49:10.329Z,10.30
2018-10-12T20:51:50.575Z,9.80
2018-10-12T20:54:18.733Z,9.30
2018-10-12T20:56:46.888Z,8.25
2018-10-12T20:59:18.837Z,8.08
2018-10-12T21:01:46.986Z,11.70
2018-10-12T21:04:15.168Z,14.38
2018-10-12T21:06:43.341Z,11.45
2018-10-12T21:09:11.504Z,12.25
2018-10-12T21:11:39.655Z,12.15
2018-10-12T21:14:07.819Z,9.95
2018-10-12T21:16:35.975Z,10.38
2018-10-12T21:19:04.142Z,10.72
2018-10-12T21:21:32.524Z,11.68
2018-10-12T21:24:00.692Z,8.33
2018-10-12T21:26:28.848Z,10.68
2018-10-12T21:28:57.022Z,10.58
2018-10-12T21:31:25.182Z,9.70
2018-10-12T21:33:53.332Z,10.32
2018-10-12T21:36:21.507Z,10.88
2018-10-12T21:38:49.675Z,11.95
2018-10-12T21:41:17.839Z,9.93
2018-10-12T21:43:46.111Z,9.83
2018-10-12T21:46:14.260Z,9.45
2018-10-12T21:48:42.423Z,9.98
2018-10-12T21:51:10.571Z,9.00
2018-10-12T21:53:38.935Z,11.03
2018-10-12T21:56:07.116Z,13.30
2018-10-12T21:58:35.284Z,9.38
2018-10-12T22:01:04.089Z,7.65
2018-10-12T22:03:33.619Z,8.68
2018-10-12T22:06:01.811Z,10.48
2018-10-12T22:08:35.420Z,9.88
2018-10-12T22:11:04.260Z,7.85
2018-10-12T22:13:32.432Z,10.90
2018-10-12T22:16:00.696Z,8.90
2018-10-12T22:18:28.983Z,12.75
2018-10-12T22:20:57.128Z,9.35
2018-10-12T22:23:25.275Z,7.20
2018-10-12T22:25:53.665Z,9.48
2018-10-12T22:28:21.774Z,6.37
2018-10-12T22:30:49.920Z,13.45
2018-10-12T22:33:18.191Z,9.30
2018-10-12T22:35:46.233Z,8.28
2018-10-12T22:38:14.451Z,7.97
2018-10-12T22:40:43.446Z,10.50
2018-10-12T22:43:11.613Z,10.55
2018-10-12T22:45:39.776Z,7.85
2018-10-12T22:48:07.998Z,8.00
2018-10-12T22:50:36.161Z,7.42
2018-10-12T22:53:04.310Z,9.00
2018-10-12T22:55:32.463Z,7.45
2018-10-12T22:58:01.290Z,7.20
2018-10-12T23:00:31.088Z,6.40
2018-10-12T23:02:59.469Z,8.45
2018-10-12T23:05:27.623Z,6.03
2018-10-12T23:07:55.791Z,7.97
2018-10-12T23:10:24.718Z,6.25
2018-10-12T23:12:53.083Z,10.48
2018-10-12T23:15:21.259Z,8.33
2018-10-12T23:17:49.410Z,9.28
2018-10-12T23:20:17.568Z,15.25
2018-10-12T23:22:47.403Z,8.08
2018-10-12T23:25:15.568Z,7.45
2018-10-12T23:27:43.749Z,7.08
2018-10-12T23:30:11.916Z,9.75
2018-10-12T23:32:40.059Z,7.20
2018-10-12T23:35:08.222Z,7.65
2018-10-12T23:37:36.384Z,6.72
2018-10-12T23:40:04.635Z,8.18
2018-10-12T23:42:32.811Z,8.68
2018-10-12T23:45:00.962Z,7.90
2018-10-12T23:47:29.212Z,9.18
2018-10-12T23:49:57.275Z,8.90
2018-10-12T23:52:25.491Z,7.20
2018-10-12T23:54:53.649Z,11.33
2018-10-12T23:57:21.813Z,7.92
2018-10-12T23:59:49.963Z,7.55
